Sunday, December 21, 2014
14:25 UTC
  |  Log In   |  Register Free
Airport Search:

Faribault Municipal Airport
(KFBL)

Faribault Municipal Airport Diagram
No Airport Diagram Available

FAA data valid effective November 13, 2014 - January 08, 2015 (unless otherwise noted).

 
 
 
 
 
 
 
 
 
 
 
 
 
 

Current Aviation Weather for Faribault Municipal Airport (KFBL)

The most recent METAR observation for KFBL was updated at: 2113
METAR Summary (Translated METAR)
KFBL
182054Z AUTO 00000KT 10SM OVC017 M06/M09 A3025 RMK AO2
KOWA
182115Z AUTO 00000KT 7SM SCT016 M06/M09 A3023 RMK AO2
(12.5 nm SE from KFBL)
KSYN
182114Z AUTO 00000KT 10SM OVC017 M05/M09 A3024 RMK AO2 T10491089
(15.5 nm NE from KFBL)
TAF
No TAF information found within 50 nm of KFBL
  Airport Weather Conditions for KFBL

 Current Weather at FBL
34° F
Fog/Mist
South winds at 9.2 mph
FBL NOAA Radar

Pressure: 29.90 in
Humidity: 100%
Wind: from the South at 9.2 gusting to 16.1 MPH (8 gusting to 14 KT)
Dew Point: 33.8°F
Visibility: 2.50 mi


Airport Weather Forecast for KFBL

Translated METAR and TAF for KFBL
Translated METAR for KFBL (1425 UTC 21 December 2014)
found at http://aviationweather.gov/adds/metars/
 
METAR text: KFBL 211414Z AUTO 15009G15KT 2 1/2SM BR OVC004 01/01 A2989 RMK AO2
Conditions at: KFBL (FARIBAULT MUNI , MN, US) observed 1414 UTC 21 December 2014
Temperature: 1.0°C (34°F)
Dewpoint: 1.0°C (34°F) [RH = 100%]
Pressure (altimeter): 29.89 inches Hg (1012.3 mb)
Winds: from the SSE (150 degrees) at 10 MPH (9 knots; 4.7 m/s)
gusting to 17 MPH (15 knots; 7.8 m/s)
Visibility: 2.50 miles (4.02 km)
Ceiling: 400 feet AGL
Clouds: overcast cloud deck at 400 feet AGL
Weather: BR  (mist)
Translated TAF for KFBL

There is no translated TAF available for this airport

Find All Airport Services Find A Hotel Find A Rental Car Find A Golf Course Find A Restaurant $100 Hamburger



FBO's on the Field
FBO Company Facility Photos Services Transportation Aviation Fuel Prices: Prices include tax
Catering Weather Repair Courtesy Rental Type 100LL JetA JetA+ MOGAS 8087
 
Quality Aviation

This FBO has not yet been rated
FS:Independent
Last Updated: Nov-14
Login to update fuel prices
SS:
Contact Quality AviationMore FBO Information
 
Add another FBO Facility Photos Catering Weather Repair Courtesy Rental Type 100LL JetA JetA+ MOGAS 8087
Services Transportation Aviation Fuel Prices: Prices include tax


model-print
model-print
model-print
model-print